Terminal Aerodrome Forecast
Issued by NWS Pocatello, ID

Home | Current Version | Previous Version | Text Only | Print | Product List | Glossary On
Versions: 1 2 3 4 5 6 7 8 9 10 11 12 13 14 15 16
828
FTUS45 KPIH 300001 AAB
TAFPIH
TAF AMD
KPIH 300001Z 3000/3024 19013G25KT P6SM -SHRA VCTS FEW060 SCT110CB
     FM300500 18008KT P6SM BKN090
     FM301500 26017G27KT P6SM SKC=

USA.gov is the U.S. government's official web portal to all federal, state and local government web resources and services.